Pagrindinis puslapis
METAR-TAF:

METAR-TAF

Oro uostai :

Taubatė, San Paulas, Brazilija

platuma: 23-02-26S, ilguma: 45-31-00W, Aukštis: 577 m

Dabartinis oras

Ataskaita buvo paskelbta 1 valandą ir 14 minutes, ne 21:00 UTC
Vėjas 5 kt iš Pietų, svyruoja nuo Pietryčių ir Pietų/Pietvakarių
Temperatūra 20°C
Drėgmė 78%
Slėgis 1019 hPa
Matomumas: 9000 m
Išsisklaidę debesys ne aukštis 1800 ft
Apsiniaukę ne aukštis 2100 ft

METAR: SBTA 212100Z 17005KT 140V210 9000 SCT018 OVC021 20/16 Q1019

Laikas: 19:14 (22:14 UTC)


TAF: trūkstamas

Orai ataskaitas ir orų prognozės (METAR, TAF).

turimą stotys yra geltonos ir raudonos taškus žemėlapyje.

Perkelti pele per norėdami pamatyti stoties vardą.

Tada spustelėkite, norėdami matyti oro stebėjimo ir prognozės.

Norėdami pakeisti žemėlapį: spustelėkite ant žalios mygtukų su juodo kryžiaus žemyn,; žalią mygtuką su brūkšneliu, jei norite nutolinti; arba žalių rodyklių gretimoms žemėlapius.


METAR-TAF: